sensor_id;sensor_type;location;lat;lon;timestamp;P1;durP1;ratioP1;P2;durP2;ratioP2
24102;SDS011;12278;53.058;9.028;2023-07-31T03:46:04;3.33;;;2.77;;
24102;SDS011;12278;53.058;9.028;2023-07-31T03:50:04;3.05;;;2.35;;
24102;SDS011;12278;53.058;9.028;2023-07-31T03:54:05;2.90;;;2.53;;
24102;SDS011;12278;53.058;9.028;2023-07-31T03:58:07;4.32;;;3.22;;
24102;SDS011;12278;53.058;9.028;2023-07-31T04:02:08;3.20;;;2.88;;
24102;SDS011;12278;53.058;9.028;2023-07-31T04:06:08;3.70;;;2.88;;
24102;SDS011;12278;53.058;9.028;2023-07-31T04:10:10;3.55;;;3.10;;
24102;SDS011;12278;53.058;9.028;2023-07-31T04:14:11;3.45;;;3.00;;
24102;SDS011;12278;53.058;9.028;2023-07-31T04:18:11;3.63;;;3.33;;
24102;SDS011;12278;53.058;9.028;2023-07-31T04:22:12;3.63;;;3.30;;
24102;SDS011;12278;53.058;9.028;2023-07-31T04:26:12;3.40;;;3.10;;
24102;SDS011;12278;53.058;9.028;2023-07-31T04:30:13;3.85;;;3.47;;
24102;SDS011;12278;53.058;9.028;2023-07-31T04:34:14;4.18;;;3.80;;
24102;SDS011;12278;53.058;9.028;2023-07-31T04:38:14;4.90;;;4.50;;
24102;SDS011;12278;53.058;9.028;2023-07-31T04:42:15;5.20;;;4.70;;
24102;SDS011;12278;53.058;9.028;2023-07-31T04:46:15;4.72;;;4.15;;
24102;SDS011;12278;53.058;9.028;2023-07-31T04:50:16;5.70;;;5.10;;
24102;SDS011;12278;53.058;9.028;2023-07-31T04:54:17;5.22;;;4.72;;
24102;SDS011;12278;53.058;9.028;2023-07-31T04:58:18;5.18;;;4.68;;
24102;SDS011;12278;53.058;9.028;2023-07-31T05:02:18;6.25;;;5.38;;
24102;SDS011;12278;53.058;9.028;2023-07-31T05:06:19;7.72;;;4.65;;
24102;SDS011;12278;53.058;9.028;2023-07-31T05:10:20;6.15;;;3.72;;
24102;SDS011;12278;53.058;9.028;2023-07-31T05:14:21;4.55;;;4.15;;
24102;SDS011;12278;53.058;9.028;2023-07-31T05:18:21;4.13;;;3.45;;
24102;SDS011;12278;53.058;9.028;2023-07-31T05:22:22;5.43;;;3.75;;
24102;SDS011;12278;53.058;9.028;2023-07-31T05:26:23;4.60;;;3.72;;
24102;SDS011;12278;53.058;9.028;2023-07-31T05:30:23;3.60;;;3.30;;
24102;SDS011;12278;53.058;9.028;2023-07-31T05:34:24;5.35;;;3.25;;
24102;SDS011;12278;53.058;9.028;2023-07-31T05:38:25;3.50;;;3.20;;
24102;SDS011;12278;53.058;9.028;2023-07-31T05:42:26;4.10;;;3.15;;
24102;SDS011;12278;53.058;9.028;2023-07-31T05:46:26;4.47;;;2.72;;
24102;SDS011;12278;53.058;9.028;2023-07-31T05:50:27;2.17;;;1.98;;
24102;SDS011;12278;53.058;9.028;2023-07-31T05:54:28;2.83;;;2.00;;
24102;SDS011;12278;53.058;9.028;2023-07-31T05:58:28;2.20;;;2.00;;
24102;SDS011;12278;53.058;9.028;2023-07-31T06:02:29;2.25;;;1.45;;
24102;SDS011;12278;53.058;9.028;2023-07-31T06:06:33;1.98;;;1.73;;
24102;SDS011;12278;53.058;9.028;2023-07-31T06:10:34;1.75;;;1.65;;
24102;SDS011;12278;53.058;9.028;2023-07-31T06:14:35;1.77;;;1.67;;
24102;SDS011;12278;53.058;9.028;2023-07-31T06:18:35;2.38;;;1.77;;
24102;SDS011;12278;53.058;9.028;2023-07-31T06:22:36;2.65;;;2.28;;
24102;SDS011;12278;53.058;9.028;2023-07-31T06:26:36;2.22;;;1.90;;
24102;SDS011;12278;53.058;9.028;2023-07-31T06:30:37;2.38;;;1.90;;
24102;SDS011;12278;53.058;9.028;2023-07-31T06:34:38;2.08;;;1.88;;
24102;SDS011;12278;53.058;9.028;2023-07-31T06:38:38;3.35;;;1.80;;
24102;SDS011;12278;53.058;9.028;2023-07-31T06:42:39;1.77;;;1.67;;
24102;SDS011;12278;53.058;9.028;2023-07-31T06:46:40;1.95;;;1.75;;
24102;SDS011;12278;53.058;9.028;2023-07-31T06:50:41;1.30;;;1.20;;
24102;SDS011;12278;53.058;9.028;2023-07-31T06:54:41;1.52;;;1.42;;
24102;SDS011;12278;53.058;9.028;2023-07-31T06:58:42;1.42;;;1.33;;
24102;SDS011;12278;53.058;9.028;2023-07-31T07:02:43;2.17;;;1.00;;
24102;SDS011;12278;53.058;9.028;2023-07-31T07:06:44;1.10;;;1.00;;
24102;SDS011;12278;53.058;9.028;2023-07-31T07:10:44;1.13;;;1.02;;
24102;SDS011;12278;53.058;9.028;2023-07-31T07:14:46;0.85;;;0.77;;
24102;SDS011;12278;53.058;9.028;2023-07-31T07:18:47;0.52;;;0.52;;
24102;SDS011;12278;53.058;9.028;2023-07-31T07:22:48;0.60;;;0.60;;
24102;SDS011;12278;53.058;9.028;2023-07-31T07:26:49;0.82;;;0.82;;
24102;SDS011;12278;53.058;9.028;2023-07-31T07:30:52;1.25;;;1.05;;
24102;SDS011;12278;53.058;9.028;2023-07-31T07:34:54;1.40;;;1.30;;
24102;SDS011;12278;53.058;9.028;2023-07-31T07:38:56;5.25;;;1.88;;
24102;SDS011;12278;53.058;9.028;2023-07-31T07:42:57;4.97;;;1.67;;
24102;SDS011;12278;53.058;9.028;2023-07-31T07:47:00;2.92;;;2.10;;
24102;SDS011;12278;53.058;9.028;2023-07-31T07:51:00;7.40;;;3.35;;
24102;SDS011;12278;53.058;9.028;2023-07-31T07:55:01;4.70;;;2.90;;
24102;SDS011;12278;53.058;9.028;2023-07-31T07:59:03;3.78;;;3.22;;
24102;SDS011;12278;53.058;9.028;2023-07-31T08:03:03;5.00;;;3.53;;
24102;SDS011;12278;53.058;9.028;2023-07-31T08:07:04;7.93;;;4.00;;
24102;SDS011;12278;53.058;9.028;2023-07-31T08:11:05;8.55;;;5.47;;
24102;SDS011;12278;53.058;9.028;2023-07-31T08:15:06;10.65;;;5.28;;
24102;SDS011;12278;53.058;9.028;2023-07-31T08:19:07;14.48;;;6.88;;
24102;SDS011;12278;53.058;9.028;2023-07-31T08:23:08;14.98;;;7.68;;
24102;SDS011;12278;53.058;9.028;2023-07-31T08:27:09;15.52;;;7.72;;
24102;SDS011;12278;53.058;9.028;2023-07-31T08:31:09;15.32;;;9.23;;
24102;SDS011;12278;53.058;9.028;2023-07-31T08:35:10;14.40;;;8.20;;
24102;SDS011;12278;53.058;9.028;2023-07-31T08:39:11;13.52;;;8.07;;
24102;SDS011;12278;53.058;9.028;2023-07-31T08:43:12;14.52;;;8.48;;
24102;SDS011;12278;53.058;9.028;2023-07-31T08:47:13;18.58;;;9.52;;
24102;SDS011;12278;53.058;9.028;2023-07-31T08:51:15;13.73;;;8.15;;
24102;SDS011;12278;53.058;9.028;2023-07-31T08:55:16;14.32;;;7.72;;
24102;SDS011;12278;53.058;9.028;2023-07-31T08:59:23;18.83;;;9.32;;
24102;SDS011;12278;53.058;9.028;2023-07-31T09:03:25;14.32;;;8.05;;
24102;SDS011;12278;53.058;9.028;2023-07-31T09:07:26;16.90;;;8.23;;
24102;SDS011;12278;53.058;9.028;2023-07-31T09:11:27;15.27;;;8.40;;
24102;SDS011;12278;53.058;9.028;2023-07-31T09:15:29;18.02;;;8.88;;
24102;SDS011;12278;53.058;9.028;2023-07-31T09:19:32;11.13;;;6.82;;
24102;SDS011;12278;53.058;9.028;2023-07-31T09:23:41;12.02;;;6.95;;
24102;SDS011;12278;53.058;9.028;2023-07-31T09:28:05;18.98;;;7.93;;
24102;SDS011;12278;53.058;9.028;2023-07-31T09:32:06;8.05;;;5.28;;
24102;SDS011;12278;53.058;9.028;2023-07-31T09:36:17;9.40;;;4.85;;
24102;SDS011;12278;53.058;9.028;2023-07-31T09:40:27;10.20;;;5.70;;
24102;SDS011;12278;53.058;9.028;2023-07-31T09:44:41;10.05;;;5.10;;
24102;SDS011;12278;53.058;9.028;2023-07-31T09:48:42;7.07;;;4.85;;
24102;SDS011;12278;53.058;9.028;2023-07-31T09:52:43;7.60;;;4.20;;
24102;SDS011;12278;53.058;9.028;2023-07-31T09:56:44;10.65;;;4.25;;
24102;SDS011;12278;53.058;9.028;2023-07-31T10:00:46;5.03;;;4.07;;
24102;SDS011;12278;53.058;9.028;2023-07-31T10:04:49;6.72;;;4.18;;
24102;SDS011;12278;53.058;9.028;2023-07-31T10:08:51;8.18;;;3.72;;
24102;SDS011;12278;53.058;9.028;2023-07-31T10:12:53;4.68;;;3.17;;
24102;SDS011;12278;53.058;9.028;2023-07-31T10:20:55;6.07;;;3.85;;
24102;SDS011;12278;53.058;9.028;2023-07-31T10:24:57;3.10;;;2.78;;
24102;SDS011;12278;53.058;9.028;2023-07-31T10:28:59;4.75;;;2.78;;
24102;SDS011;12278;53.058;9.028;2023-07-31T10:33:01;4.68;;;2.83;;
24102;SDS011;12278;53.058;9.028;2023-07-31T10:41:31;3.72;;;3.13;;
24102;SDS011;12278;53.058;9.028;2023-07-31T10:45:39;5.13;;;3.33;;
24102;SDS011;12278;53.058;9.028;2023-07-31T10:49:44;4.45;;;2.55;;
24102;SDS011;12278;53.058;9.028;2023-07-31T10:53:46;2.80;;;2.25;;
24102;SDS011;12278;53.058;9.028;2023-07-31T10:57:47;3.67;;;2.30;;
24102;SDS011;12278;53.058;9.028;2023-07-31T11:01:55;3.50;;;1.70;;
24102;SDS011;12278;53.058;9.028;2023-07-31T11:06:02;1.70;;;1.48;;
24102;SDS011;12278;53.058;9.028;2023-07-31T11:10:03;2.10;;;1.30;;
24102;SDS011;12278;53.058;9.028;2023-07-31T11:14:05;3.80;;;1.60;;
24102;SDS011;12278;53.058;9.028;2023-07-31T11:18:06;2.50;;;1.45;;
24102;SDS011;12278;53.058;9.028;2023-07-31T11:22:08;1.58;;;1.40;;
24102;SDS011;12278;53.058;9.028;2023-07-31T11:26:09;1.58;;;1.17;;
24102;SDS011;12278;53.058;9.028;2023-07-31T11:30:10;1.13;;;1.02;;
24102;SDS011;12278;53.058;9.028;2023-07-31T11:34:11;1.05;;;0.85;;
24102;SDS011;12278;53.058;9.028;2023-07-31T11:38:12;0.82;;;0.82;;
24102;SDS011;12278;53.058;9.028;2023-07-31T11:42:30;1.08;;;0.90;;
24102;SDS011;12278;53.058;9.028;2023-07-31T11:46:31;1.67;;;0.68;;
24102;SDS011;12278;53.058;9.028;2023-07-31T11:50:33;0.80;;;0.80;;
24102;SDS011;12278;53.058;9.028;2023-07-31T11:54:35;0.70;;;0.70;;
24102;SDS011;12278;53.058;9.028;2023-07-31T11:58:36;1.52;;;0.80;;
24102;SDS011;12278;53.058;9.028;2023-07-31T12:02:38;0.95;;;0.95;;
24102;SDS011;12278;53.058;9.028;2023-07-31T12:06:42;1.00;;;0.90;;
24102;SDS011;12278;53.058;9.028;2023-07-31T12:10:44;1.00;;;1.00;;
24102;SDS011;12278;53.058;9.028;2023-07-31T12:14:45;1.30;;;1.15;;
24102;SDS011;12278;53.058;9.028;2023-07-31T12:18:46;1.77;;;1.10;;
24102;SDS011;12278;53.058;9.028;2023-07-31T12:22:49;0.52;;;0.52;;
24102;SDS011;12278;53.058;9.028;2023-07-31T12:26:50;1.50;;;0.95;;
24102;SDS011;12278;53.058;9.028;2023-07-31T12:30:52;0.80;;;0.80;;
24102;SDS011;12278;53.058;9.028;2023-07-31T15:35:31;4.90;;;4.40;;
24102;SDS011;12278;53.058;9.028;2023-07-31T15:47:34;4.60;;;4.10;;
24102;SDS011;12278;53.058;9.028;2023-07-31T15:51:34;4.80;;;4.00;;
24102;SDS011;12278;53.058;9.028;2023-07-31T15:59:35;4.00;;;3.60;;
24102;SDS011;12278;53.058;9.028;2023-07-31T16:35:40;2.67;;;2.47;;
24102;SDS011;12278;53.058;9.028;2023-07-31T16:43:46;2.80;;;2.60;;
24102;SDS011;12278;53.058;9.028;2023-07-31T16:47:47;3.00;;;2.70;;
24102;SDS011;12278;53.058;9.028;2023-07-31T16:51:47;3.75;;;2.60;;
24102;SDS011;12278;53.058;9.028;2023-07-31T16:55:48;3.13;;;2.77;;
24102;SDS011;12278;53.058;9.028;2023-07-31T16:59:49;3.13;;;2.83;;
24102;SDS011;12278;53.058;9.028;2023-07-31T17:03:49;3.50;;;3.20;;
24102;SDS011;12278;53.058;9.028;2023-07-31T17:07:50;3.60;;;3.00;;
24102;SDS011;12278;53.058;9.028;2023-07-31T17:11:51;3.75;;;3.00;;
24102;SDS011;12278;53.058;9.028;2023-07-31T17:15:51;3.88;;;2.83;;
24102;SDS011;12278;53.058;9.028;2023-07-31T17:19:52;5.57;;;3.33;;
24102;SDS011;12278;53.058;9.028;2023-07-31T17:23:53;4.43;;;3.40;;
24102;SDS011;12278;53.058;9.028;2023-07-31T17:27:54;4.60;;;3.47;;
24102;SDS011;12278;53.058;9.028;2023-07-31T17:31:55;3.95;;;3.45;;
24102;SDS011;12278;53.058;9.028;2023-07-31T17:35:55;3.80;;;3.10;;
24102;SDS011;12278;53.058;9.028;2023-07-31T17:39:56;4.43;;;3.63;;
24102;SDS011;12278;53.058;9.028;2023-07-31T17:43:57;4.43;;;3.13;;
24102;SDS011;12278;53.058;9.028;2023-07-31T17:47:57;5.88;;;3.70;;
24102;SDS011;12278;53.058;9.028;2023-07-31T17:51:58;4.32;;;3.45;;
24102;SDS011;12278;53.058;9.028;2023-07-31T17:56:01;4.97;;;3.80;;
24102;SDS011;12278;53.058;9.028;2023-07-31T18:00:02;4.10;;;3.70;;
24102;SDS011;12278;53.058;9.028;2023-07-31T18:04:03;4.85;;;3.83;;
24102;SDS011;12278;53.058;9.028;2023-07-31T18:08:04;5.57;;;4.07;;
24102;SDS011;12278;53.058;9.028;2023-07-31T19:20:17;2.92;;;2.72;;
24102;SDS011;12278;53.058;9.028;2023-07-31T19:24:18;3.42;;;2.70;;
24102;SDS011;12278;53.058;9.028;2023-07-31T19:28:20;3.53;;;3.10;;
24102;SDS011;12278;53.058;9.028;2023-07-31T19:32:21;4.25;;;3.67;;
24102;SDS011;12278;53.058;9.028;2023-07-31T19:36:21;5.50;;;4.85;;
24102;SDS011;12278;53.058;9.028;2023-07-31T19:40:22;5.70;;;4.40;;
24102;SDS011;12278;53.058;9.028;2023-07-31T19:44:22;8.00;;;4.90;;
24102;SDS011;12278;53.058;9.028;2023-07-31T19:48:23;6.68;;;6.03;;
24102;SDS011;12278;53.058;9.028;2023-07-31T19:52:24;6.75;;;6.03;;
24102;SDS011;12278;53.058;9.028;2023-07-31T19:56:25;6.78;;;6.18;;
24102;SDS011;12278;53.058;9.028;2023-07-31T20:00:25;8.43;;;7.63;;
24102;SDS011;12278;53.058;9.028;2023-07-31T20:04:26;9.70;;;7.05;;
24102;SDS011;12278;53.058;9.028;2023-07-31T20:08:26;9.43;;;7.40;;
24102;SDS011;12278;53.058;9.028;2023-07-31T20:12:27;8.45;;;7.65;;
24102;SDS011;12278;53.058;9.028;2023-07-31T20:16:28;9.30;;;7.53;;
24102;SDS011;12278;53.058;9.028;2023-07-31T20:20:29;9.05;;;8.15;;
24102;SDS011;12278;53.058;9.028;2023-07-31T20:24:31;9.23;;;7.68;;
24102;SDS011;12278;53.058;9.028;2023-07-31T20:28:32;7.88;;;7.07;;
24102;SDS011;12278;53.058;9.028;2023-07-31T20:32:32;7.55;;;6.85;;
24102;SDS011;12278;53.058;9.028;2023-07-31T20:36:33;8.20;;;6.95;;
24102;SDS011;12278;53.058;9.028;2023-07-31T20:40:35;6.85;;;6.25;;
24102;SDS011;12278;53.058;9.028;2023-07-31T20:44:36;9.02;;;6.45;;
24102;SDS011;12278;53.058;9.028;2023-07-31T20:48:36;6.90;;;6.20;;
24102;SDS011;12278;53.058;9.028;2023-07-31T21:20:45;5.97;;;5.47;;
24102;SDS011;12278;53.058;9.028;2023-07-31T21:24:51;4.75;;;3.78;;
24102;SDS011;12278;53.058;9.028;2023-07-31T21:28:52;4.43;;;3.15;;
24102;SDS011;12278;53.058;9.028;2023-07-31T21:32:52;3.53;;;2.45;;
24102;SDS011;12278;53.058;9.028;2023-07-31T21:36:53;2.85;;;2.58;;
24102;SDS011;12278;53.058;9.028;2023-07-31T21:40:53;2.22;;;2.03;;
24102;SDS011;12278;53.058;9.028;2023-07-31T21:44:54;2.33;;;1.63;;
24102;SDS011;12278;53.058;9.028;2023-07-31T21:48:55;1.50;;;1.30;;
24102;SDS011;12278;53.058;9.028;2023-07-31T21:52:55;1.98;;;1.63;;
24102;SDS011;12278;53.058;9.028;2023-07-31T21:56:56;1.98;;;1.58;;
24102;SDS011;12278;53.058;9.028;2023-07-31T22:00:56;2.53;;;1.73;;
24102;SDS011;12278;53.058;9.028;2023-07-31T22:04:57;1.98;;;1.63;;
24102;SDS011;12278;53.058;9.028;2023-07-31T22:08:57;1.70;;;1.40;;
24102;SDS011;12278;53.058;9.028;2023-07-31T22:12:58;2.85;;;1.98;;
24102;SDS011;12278;53.058;9.028;2023-07-31T22:16:59;2.03;;;1.70;;
24102;SDS011;12278;53.058;9.028;2023-07-31T22:20:59;2.08;;;1.83;;
24102;SDS011;12278;53.058;9.028;2023-07-31T22:25:00;3.80;;;1.90;;
24102;SDS011;12278;53.058;9.028;2023-07-31T22:29:01;2.30;;;1.83;;
24102;SDS011;12278;53.058;9.028;2023-07-31T22:33:02;2.15;;;1.48;;
24102;SDS011;12278;53.058;9.028;2023-07-31T22:37:02;1.48;;;1.25;;
24102;SDS011;12278;53.058;9.028;2023-07-31T22:41:03;1.50;;;1.40;;
24102;SDS011;12278;53.058;9.028;2023-07-31T22:45:05;1.83;;;1.38;;
24102;SDS011;12278;53.058;9.028;2023-07-31T22:49:06;1.60;;;1.30;;
24102;SDS011;12278;53.058;9.028;2023-07-31T22:53:06;1.52;;;1.42;;
24102;SDS011;12278;53.058;9.028;2023-07-31T22:57:07;1.92;;;1.63;;
24102;SDS011;12278;53.058;9.028;2023-07-31T23:01:08;3.03;;;2.03;;
24102;SDS011;12278;53.058;9.028;2023-07-31T23:05:09;2.20;;;2.00;;
24102;SDS011;12278;53.058;9.028;2023-07-31T23:09:10;2.60;;;2.40;;
24102;SDS011;12278;53.058;9.028;2023-07-31T23:13:11;3.38;;;2.95;;
24102;SDS011;12278;53.058;9.028;2023-07-31T23:21:12;3.30;;;3.00;;
24102;SDS011;12278;53.058;9.028;2023-07-31T23:25:12;4.17;;;3.73;;
24102;SDS011;12278;53.058;9.028;2023-07-31T23:29:13;3.40;;;2.95;;
24102;SDS011;12278;53.058;9.028;2023-07-31T23:33:14;3.30;;;3.00;;
24102;SDS011;12278;53.058;9.028;2023-07-31T23:37:14;4.38;;;3.92;;
24102;SDS011;12278;53.058;9.028;2023-07-31T23:41:15;4.40;;;4.00;;
24102;SDS011;12278;53.058;9.028;2023-07-31T23:45:19;4.18;;;3.78;;
24102;SDS011;12278;53.058;9.028;2023-07-31T23:49:20;4.50;;;4.03;;
24102;SDS011;12278;53.058;9.028;2023-07-31T23:53:21;6.65;;;4.63;;
24102;SDS011;12278;53.058;9.028;2023-07-31T23:57:22;4.47;;;4.07;;
